PADM

Details ICAO PADM (MLL)
Name MARSHALL DON HUNTER SR
Region USA (Alaska)
Timezone America/Nome (UTC-8.0)
Plans Departing 0
Arriving 0
Stats Elevation 103 ft / 31 m (AMSL)
Location 61.864177° -162.026110°
Runways 1
Magnetic Variation 11.339° E
Sunrise 2018-05-26 13:29:28 UTC / 2018-05-26 05:29:28 Local
Sunset 2018-05-27 08:03:48 UTC / 2018-05-27 00:03:48 Local
Advertisement - Login to hide

Runways

ID Width Length Bearing (true) Bearing (mag) Surface Threshold Offset Overrun Length
07 98 ft / 30 m 3,190 ft / 972 m 84.96° 73.62° Gravel 0 ft / 0 m 0 ft / 0 m
25 98 ft / 30 m 3,190 ft / 972 m 264.97° 253.63° Gravel 0 ft / 0 m 0 ft / 0 m

Map

Weather


0- 5 10 15 20 25 30 35+ Temperature / ° C

Clouds and Precipitation
Forecast for 2018-05-26 12:00 UTC. Updated 3 hours ago

Ground ~20,000 ft ~40,000 ft Winds

METAR

PADM 261402Z AUTO 32010KT 10SM OVC015 02/M01 A2982 RMK AO2 FZRANO

TAF

Not found

Frequencies

Unicom 122.90 MHz CTAF
Warning: Do not use this data for real-world aviation or navigation. No guarantee of current accuracy is given.